Stanley, United Kingdom
Current Conditions -  °F | °C
As of 11:20 AM on Sunday 21 Dec 2014 (Local Time) from EGNT Reporting Station
Light Rain Light Rain  
Wind Chill: 50°   Ceiling: 1900
Heat Index: 50°   Visibility: 6mi
Dew Point: 45°   Wind: 14mph
Humidity: 82%   Direction: 240°WSW
Pressure: 29.91"   Gusts: NA
Location:  54.87°N, 1.7°W
Report Text: EGNT 211120Z 24012KT 9000 -RADZ BKN019 10/07 Q1013
Loading
Personal Weather Stations






























Interactive Weather Map New forecast layout! Learn more

10-Day Weather Forecast

Advertisements
Track Severe Weather on mobile